Hlavní strana
METAR-TAF:

METAR-TAF

Letiště :

Millington, Tennessee, Spojené státy americké

zeměpisná šířka: 35-21-24N, zeměpisná délka: 089-52-13W, výška: 98 m

Aktuální stav počasí

Zpráva byla vytvořena před 28 minutami, v 21:50 UTC
Severní vítr 11 kt s nárazy do 20 kt
Teplota 12°C
Vlhkost vzduchu 82%
Tlak 1019 hPa
Viditelnost: 11.3 km
Zataženo ve výšce 1700 ft

METAR: KNQA 252150Z 35011G20KT 7SM OVC017 12/09 A3010

Čas: 17:18 (22:18 UTC)


TAF: chybějící

Stav a předpovědi počasí z více než 4 000 letišť (zprávy METAR a TAF).

Červené a žluté tečky na mapě představují dostupné meteorologické stanice.

Když kurzor umístíte na tečku, zobrazí se název stanice.

Pak kliknutím zobrazíte stav a předpověď počasí.

Chcete-li změnit mapu, kliknutím na zelené tlačítko se znaménkem +mapu přiblížíte, kliknutím na zelené tlačítko se znaménkem – mapu oddálíte a kliknutím na zelené šipky přejdete na sousední mapy.


METAR-TAF: